sensor_id;sensor_type;location;lat;lon;timestamp;P1;durP1;ratioP1;P2;durP2;ratioP2
10335;SDS011;5213;53.548;9.930;2023-07-09T00:02:19;5.75;;;2.95;;
10335;SDS011;5213;53.548;9.930;2023-07-09T00:04:46;6.05;;;3.47;;
10335;SDS011;5213;53.548;9.930;2023-07-09T00:09:47;3.20;;;2.90;;
10335;SDS011;5213;53.548;9.930;2023-07-09T00:12:14;4.22;;;2.85;;
10335;SDS011;5213;53.548;9.930;2023-07-09T00:14:41;6.18;;;2.80;;
10335;SDS011;5213;53.548;9.930;2023-07-09T00:17:09;3.17;;;2.83;;
10335;SDS011;5213;53.548;9.930;2023-07-09T00:19:36;4.18;;;3.13;;
10335;SDS011;5213;53.548;9.930;2023-07-09T00:22:02;3.85;;;2.97;;
10335;SDS011;5213;53.548;9.930;2023-07-09T00:24:33;3.35;;;3.05;;
10335;SDS011;5213;53.548;9.930;2023-07-09T00:27:00;4.70;;;3.00;;
10335;SDS011;5213;53.548;9.930;2023-07-09T00:29:25;4.03;;;3.58;;
10335;SDS011;5213;53.548;9.930;2023-07-09T00:31:51;3.38;;;3.08;;
10335;SDS011;5213;53.548;9.930;2023-07-09T00:34:16;3.97;;;3.35;;
10335;SDS011;5213;53.548;9.930;2023-07-09T00:36:43;3.50;;;3.20;;
10335;SDS011;5213;53.548;9.930;2023-07-09T00:39:15;3.20;;;3.00;;
10335;SDS011;5213;53.548;9.930;2023-07-09T00:41:42;5.93;;;3.00;;
10335;SDS011;5213;53.548;9.930;2023-07-09T00:49:15;3.67;;;3.17;;
10335;SDS011;5213;53.548;9.930;2023-07-09T00:51:46;3.33;;;3.10;;
10335;SDS011;5213;53.548;9.930;2023-07-09T00:54:13;4.28;;;2.80;;
10335;SDS011;5213;53.548;9.930;2023-07-09T00:56:46;3.95;;;3.10;;
10335;SDS011;5213;53.548;9.930;2023-07-09T00:59:16;3.60;;;3.30;;
10335;SDS011;5213;53.548;9.930;2023-07-09T01:01:45;3.28;;;2.95;;
10335;SDS011;5213;53.548;9.930;2023-07-09T01:04:15;5.03;;;2.90;;
10335;SDS011;5213;53.548;9.930;2023-07-09T01:06:47;3.47;;;3.10;;
10335;SDS011;5213;53.548;9.930;2023-07-09T01:09:18;4.60;;;3.25;;
10335;SDS011;5213;53.548;9.930;2023-07-09T01:11:55;4.05;;;3.05;;
10335;SDS011;5213;53.548;9.930;2023-07-09T01:14:26;3.70;;;3.05;;
10335;SDS011;5213;53.548;9.930;2023-07-09T01:16:53;4.20;;;3.08;;
10335;SDS011;5213;53.548;9.930;2023-07-09T01:19:28;3.10;;;2.80;;
10335;SDS011;5213;53.548;9.930;2023-07-09T01:21:56;4.65;;;3.22;;
10335;SDS011;5213;53.548;9.930;2023-07-09T01:27:11;3.20;;;2.90;;
10335;SDS011;5213;53.548;9.930;2023-07-09T01:29:37;3.90;;;2.97;;
10335;SDS011;5213;53.548;9.930;2023-07-09T01:32:03;4.28;;;3.30;;
10335;SDS011;5213;53.548;9.930;2023-07-09T01:34:31;3.05;;;2.70;;
10335;SDS011;5213;53.548;9.930;2023-07-09T01:36:57;4.47;;;3.10;;
10335;SDS011;5213;53.548;9.930;2023-07-09T01:39:23;3.65;;;3.08;;
10335;SDS011;5213;53.548;9.930;2023-07-09T01:41:50;3.45;;;2.97;;
10335;SDS011;5213;53.548;9.930;2023-07-09T01:44:16;3.20;;;3.00;;
10335;SDS011;5213;53.548;9.930;2023-07-09T01:46:42;3.67;;;3.25;;
10335;SDS011;5213;53.548;9.930;2023-07-09T01:49:08;3.45;;;3.15;;
10335;SDS011;5213;53.548;9.930;2023-07-09T01:51:34;3.42;;;3.13;;
10335;SDS011;5213;53.548;9.930;2023-07-09T01:54:01;3.25;;;2.70;;
10335;SDS011;5213;53.548;9.930;2023-07-09T01:56:27;7.20;;;3.30;;
10335;SDS011;5213;53.548;9.930;2023-07-09T01:58:54;5.18;;;2.88;;
10335;SDS011;5213;53.548;9.930;2023-07-09T02:01:30;3.42;;;3.15;;
10335;SDS011;5213;53.548;9.930;2023-07-09T02:03:58;3.67;;;2.83;;
10335;SDS011;5213;53.548;9.930;2023-07-09T02:06:24;3.60;;;2.97;;
10335;SDS011;5213;53.548;9.930;2023-07-09T02:08:50;3.05;;;2.85;;
10335;SDS011;5213;53.548;9.930;2023-07-09T02:11:15;3.45;;;3.20;;
10335;SDS011;5213;53.548;9.930;2023-07-09T02:13:41;5.60;;;3.20;;
10335;SDS011;5213;53.548;9.930;2023-07-09T02:16:07;4.65;;;3.35;;
10335;SDS011;5213;53.548;9.930;2023-07-09T02:18:34;3.50;;;3.20;;
10335;SDS011;5213;53.548;9.930;2023-07-09T02:20:59;4.93;;;3.38;;
10335;SDS011;5213;53.548;9.930;2023-07-09T02:23:26;3.53;;;3.08;;
10335;SDS011;5213;53.548;9.930;2023-07-09T02:25:52;3.72;;;3.20;;
10335;SDS011;5213;53.548;9.930;2023-07-09T02:28:18;4.75;;;2.92;;
10335;SDS011;5213;53.548;9.930;2023-07-09T02:30:44;3.30;;;3.10;;
10335;SDS011;5213;53.548;9.930;2023-07-09T02:33:10;3.85;;;3.22;;
10335;SDS011;5213;53.548;9.930;2023-07-09T02:35:35;3.10;;;2.90;;
10335;SDS011;5213;53.548;9.930;2023-07-09T02:38:01;2.90;;;2.70;;
10335;SDS011;5213;53.548;9.930;2023-07-09T02:40:28;4.03;;;3.15;;
10335;SDS011;5213;53.548;9.930;2023-07-09T02:42:53;3.72;;;2.85;;
10335;SDS011;5213;53.548;9.930;2023-07-09T02:45:19;4.90;;;3.28;;
10335;SDS011;5213;53.548;9.930;2023-07-09T02:47:45;3.38;;;3.00;;
10335;SDS011;5213;53.548;9.930;2023-07-09T02:50:11;6.10;;;3.40;;
10335;SDS011;5213;53.548;9.930;2023-07-09T02:52:36;4.25;;;3.15;;
10335;SDS011;5213;53.548;9.930;2023-07-09T02:55:02;4.53;;;2.97;;
10335;SDS011;5213;53.548;9.930;2023-07-09T02:57:28;4.70;;;3.00;;
10335;SDS011;5213;53.548;9.930;2023-07-09T02:59:53;3.80;;;3.17;;
10335;SDS011;5213;53.548;9.930;2023-07-09T03:02:19;4.03;;;2.95;;
10335;SDS011;5213;53.548;9.930;2023-07-09T03:04:45;3.47;;;3.17;;
10335;SDS011;5213;53.548;9.930;2023-07-09T03:07:10;6.45;;;3.25;;
10335;SDS011;5213;53.548;9.930;2023-07-09T03:09:36;4.10;;;3.70;;
10335;SDS011;5213;53.548;9.930;2023-07-09T03:12:01;4.15;;;3.85;;
10335;SDS011;5213;53.548;9.930;2023-07-09T03:14:27;4.03;;;3.63;;
10335;SDS011;5213;53.548;9.930;2023-07-09T03:16:53;4.95;;;4.00;;
10335;SDS011;5213;53.548;9.930;2023-07-09T03:19:19;3.75;;;3.40;;
10335;SDS011;5213;53.548;9.930;2023-07-09T03:21:45;4.03;;;3.67;;
10335;SDS011;5213;53.548;9.930;2023-07-09T03:24:11;3.50;;;3.20;;
10335;SDS011;5213;53.548;9.930;2023-07-09T03:26:43;4.57;;;3.83;;
10335;SDS011;5213;53.548;9.930;2023-07-09T03:29:10;4.70;;;3.45;;
10335;SDS011;5213;53.548;9.930;2023-07-09T03:31:36;6.43;;;3.58;;
10335;SDS011;5213;53.548;9.930;2023-07-09T03:34:02;3.47;;;3.17;;
10335;SDS011;5213;53.548;9.930;2023-07-09T03:36:28;3.50;;;3.20;;
10335;SDS011;5213;53.548;9.930;2023-07-09T03:38:54;3.47;;;3.17;;
10335;SDS011;5213;53.548;9.930;2023-07-09T03:41:20;3.63;;;2.95;;
10335;SDS011;5213;53.548;9.930;2023-07-09T03:43:46;4.07;;;3.10;;
10335;SDS011;5213;53.548;9.930;2023-07-09T03:46:14;3.58;;;3.28;;
10335;SDS011;5213;53.548;9.930;2023-07-09T03:48:40;3.30;;;3.03;;
10335;SDS011;5213;53.548;9.930;2023-07-09T03:51:06;3.58;;;3.20;;
10335;SDS011;5213;53.548;9.930;2023-07-09T03:53:31;5.75;;;3.10;;
10335;SDS011;5213;53.548;9.930;2023-07-09T03:55:57;4.53;;;3.20;;
10335;SDS011;5213;53.548;9.930;2023-07-09T03:58:24;3.45;;;3.10;;
10335;SDS011;5213;53.548;9.930;2023-07-09T04:00:51;6.03;;;3.10;;
10335;SDS011;5213;53.548;9.930;2023-07-09T04:03:17;3.53;;;3.22;;
10335;SDS011;5213;53.548;9.930;2023-07-09T04:05:42;3.83;;;3.40;;
10335;SDS011;5213;53.548;9.930;2023-07-09T04:08:08;5.60;;;3.53;;
10335;SDS011;5213;53.548;9.930;2023-07-09T04:10:34;5.18;;;3.17;;
10335;SDS011;5213;53.548;9.930;2023-07-09T04:12:59;3.65;;;3.10;;
10335;SDS011;5213;53.548;9.930;2023-07-09T04:15:25;3.83;;;3.42;;
10335;SDS011;5213;53.548;9.930;2023-07-09T04:17:51;4.15;;;3.05;;
10335;SDS011;5213;53.548;9.930;2023-07-09T04:20:17;5.03;;;3.30;;
10335;SDS011;5213;53.548;9.930;2023-07-09T04:22:43;3.53;;;3.20;;
10335;SDS011;5213;53.548;9.930;2023-07-09T04:25:09;3.50;;;3.20;;
10335;SDS011;5213;53.548;9.930;2023-07-09T04:27:37;3.65;;;3.30;;
10335;SDS011;5213;53.548;9.930;2023-07-09T04:30:04;3.42;;;3.03;;
10335;SDS011;5213;53.548;9.930;2023-07-09T04:32:31;3.40;;;3.20;;
10335;SDS011;5213;53.548;9.930;2023-07-09T04:34:56;3.65;;;3.42;;
10335;SDS011;5213;53.548;9.930;2023-07-09T04:37:22;3.58;;;3.28;;
10335;SDS011;5213;53.548;9.930;2023-07-09T04:39:48;3.72;;;2.90;;
10335;SDS011;5213;53.548;9.930;2023-07-09T04:42:15;4.05;;;3.20;;
10335;SDS011;5213;53.548;9.930;2023-07-09T04:44:42;3.90;;;3.25;;
10335;SDS011;5213;53.548;9.930;2023-07-09T04:47:09;3.25;;;2.92;;
10335;SDS011;5213;53.548;9.930;2023-07-09T04:49:34;2.92;;;2.72;;
10335;SDS011;5213;53.548;9.930;2023-07-09T04:52:00;3.25;;;2.83;;
10335;SDS011;5213;53.548;9.930;2023-07-09T04:54:26;3.90;;;3.08;;
10335;SDS011;5213;53.548;9.930;2023-07-09T04:56:52;3.20;;;2.90;;
10335;SDS011;5213;53.548;9.930;2023-07-09T04:59:18;3.22;;;2.92;;
10335;SDS011;5213;53.548;9.930;2023-07-09T05:01:44;3.20;;;2.83;;
10335;SDS011;5213;53.548;9.930;2023-07-09T05:04:10;3.22;;;3.00;;
10335;SDS011;5213;53.548;9.930;2023-07-09T05:06:36;3.97;;;2.70;;
10335;SDS011;5213;53.548;9.930;2023-07-09T05:09:03;3.22;;;2.90;;
10335;SDS011;5213;53.548;9.930;2023-07-09T05:11:28;2.90;;;2.60;;
10335;SDS011;5213;53.548;9.930;2023-07-09T05:13:56;3.20;;;2.88;;
10335;SDS011;5213;53.548;9.930;2023-07-09T05:16:21;4.50;;;3.20;;
10335;SDS011;5213;53.548;9.930;2023-07-09T05:18:47;3.70;;;3.40;;
10335;SDS011;5213;53.548;9.930;2023-07-09T05:21:13;3.55;;;3.15;;
10335;SDS011;5213;53.548;9.930;2023-07-09T05:23:38;4.03;;;3.15;;
10335;SDS011;5213;53.548;9.930;2023-07-09T05:26:04;3.40;;;3.10;;
10335;SDS011;5213;53.548;9.930;2023-07-09T05:28:30;3.75;;;3.20;;
10335;SDS011;5213;53.548;9.930;2023-07-09T05:30:58;4.60;;;3.13;;
10335;SDS011;5213;53.548;9.930;2023-07-09T05:33:24;4.45;;;3.30;;
10335;SDS011;5213;53.548;9.930;2023-07-09T05:35:49;5.05;;;3.70;;
10335;SDS011;5213;53.548;9.930;2023-07-09T05:38:15;4.78;;;2.72;;
10335;SDS011;5213;53.548;9.930;2023-07-09T05:40:42;6.50;;;3.33;;
10335;SDS011;5213;53.548;9.930;2023-07-09T05:43:08;3.88;;;3.33;;
10335;SDS011;5213;53.548;9.930;2023-07-09T05:45:35;3.65;;;3.35;;
10335;SDS011;5213;53.548;9.930;2023-07-09T05:48:00;4.90;;;3.20;;
10335;SDS011;5213;53.548;9.930;2023-07-09T05:50:27;4.68;;;3.35;;
10335;SDS011;5213;53.548;9.930;2023-07-09T05:52:53;5.35;;;3.53;;
10335;SDS011;5213;53.548;9.930;2023-07-09T05:55:19;4.28;;;3.75;;
10335;SDS011;5213;53.548;9.930;2023-07-09T05:57:44;7.30;;;3.67;;
10335;SDS011;5213;53.548;9.930;2023-07-09T06:00:10;5.65;;;3.83;;
10335;SDS011;5213;53.548;9.930;2023-07-09T06:02:37;4.03;;;3.63;;
10335;SDS011;5213;53.548;9.930;2023-07-09T06:05:03;5.28;;;3.75;;
10335;SDS011;5213;53.548;9.930;2023-07-09T06:07:30;4.18;;;3.75;;
10335;SDS011;5213;53.548;9.930;2023-07-09T06:09:55;4.45;;;4.05;;
10335;SDS011;5213;53.548;9.930;2023-07-09T06:12:22;4.00;;;3.55;;
10335;SDS011;5213;53.548;9.930;2023-07-09T06:14:48;4.32;;;3.67;;
10335;SDS011;5213;53.548;9.930;2023-07-09T06:17:13;4.97;;;3.45;;
10335;SDS011;5213;53.548;9.930;2023-07-09T06:19:39;3.47;;;3.15;;
10335;SDS011;5213;53.548;9.930;2023-07-09T06:22:05;4.13;;;2.92;;
10335;SDS011;5213;53.548;9.930;2023-07-09T06:24:31;4.47;;;3.35;;
10335;SDS011;5213;53.548;9.930;2023-07-09T06:26:57;3.50;;;3.20;;
10335;SDS011;5213;53.548;9.930;2023-07-09T06:29:24;5.03;;;3.67;;
10335;SDS011;5213;53.548;9.930;2023-07-09T06:31:50;3.50;;;3.20;;
10335;SDS011;5213;53.548;9.930;2023-07-09T06:34:15;5.22;;;3.83;;
10335;SDS011;5213;53.548;9.930;2023-07-09T06:36:41;4.20;;;3.80;;
10335;SDS011;5213;53.548;9.930;2023-07-09T06:39:07;4.30;;;3.88;;
10335;SDS011;5213;53.548;9.930;2023-07-09T06:41:32;5.60;;;3.13;;
10335;SDS011;5213;53.548;9.930;2023-07-09T06:44:03;3.78;;;3.47;;
10335;SDS011;5213;53.548;9.930;2023-07-09T06:46:32;3.50;;;3.20;;
10335;SDS011;5213;53.548;9.930;2023-07-09T06:48:58;3.38;;;3.10;;
10335;SDS011;5213;53.548;9.930;2023-07-09T06:51:24;3.17;;;2.97;;
10335;SDS011;5213;53.548;9.930;2023-07-09T06:53:50;4.57;;;3.08;;
10335;SDS011;5213;53.548;9.930;2023-07-09T06:56:16;3.40;;;3.10;;
10335;SDS011;5213;53.548;9.930;2023-07-09T06:58:42;3.67;;;3.15;;
10335;SDS011;5213;53.548;9.930;2023-07-09T07:01:10;4.68;;;3.55;;
10335;SDS011;5213;53.548;9.930;2023-07-09T07:03:36;6.03;;;3.42;;
10335;SDS011;5213;53.548;9.930;2023-07-09T07:06:02;3.40;;;3.10;;
10335;SDS011;5213;53.548;9.930;2023-07-09T07:08:28;4.72;;;3.53;;
10335;SDS011;5213;53.548;9.930;2023-07-09T07:10:55;3.55;;;3.25;;
10335;SDS011;5213;53.548;9.930;2023-07-09T07:13:28;3.80;;;3.50;;
10335;SDS011;5213;53.548;9.930;2023-07-09T07:16:00;3.65;;;3.35;;
10335;SDS011;5213;53.548;9.930;2023-07-09T07:18:27;5.15;;;3.45;;
10335;SDS011;5213;53.548;9.930;2023-07-09T07:20:52;3.88;;;3.55;;
10335;SDS011;5213;53.548;9.930;2023-07-09T07:23:18;3.88;;;3.47;;
10335;SDS011;5213;53.548;9.930;2023-07-09T07:25:44;6.38;;;3.60;;
10335;SDS011;5213;53.548;9.930;2023-07-09T07:28:11;5.68;;;3.72;;
10335;SDS011;5213;53.548;9.930;2023-07-09T07:30:37;4.10;;;3.70;;
10335;SDS011;5213;53.548;9.930;2023-07-09T07:33:02;4.10;;;3.15;;
10335;SDS011;5213;53.548;9.930;2023-07-09T07:35:28;5.75;;;3.85;;
10335;SDS011;5213;53.548;9.930;2023-07-09T07:37:53;3.90;;;3.50;;
10335;SDS011;5213;53.548;9.930;2023-07-09T07:40:19;3.83;;;3.50;;
10335;SDS011;5213;53.548;9.930;2023-07-09T07:42:45;4.20;;;3.80;;
10335;SDS011;5213;53.548;9.930;2023-07-09T07:45:11;4.85;;;3.35;;
10335;SDS011;5213;53.548;9.930;2023-07-09T07:47:36;3.65;;;3.35;;
10335;SDS011;5213;53.548;9.930;2023-07-09T07:50:02;4.78;;;3.60;;
10335;SDS011;5213;53.548;9.930;2023-07-09T07:52:28;4.22;;;3.83;;
10335;SDS011;5213;53.548;9.930;2023-07-09T07:54:54;6.45;;;3.97;;
10335;SDS011;5213;53.548;9.930;2023-07-09T07:57:19;4.00;;;3.58;;
10335;SDS011;5213;53.548;9.930;2023-07-09T07:59:49;4.00;;;3.60;;
10335;SDS011;5213;53.548;9.930;2023-07-09T08:02:14;3.40;;;3.10;;
10335;SDS011;5213;53.548;9.930;2023-07-09T08:04:40;5.30;;;3.92;;
10335;SDS011;5213;53.548;9.930;2023-07-09T08:07:09;4.43;;;3.65;;
10335;SDS011;5213;53.548;9.930;2023-07-09T08:09:36;6.10;;;3.92;;
10335;SDS011;5213;53.548;9.930;2023-07-09T08:12:02;3.85;;;3.55;;
10335;SDS011;5213;53.548;9.930;2023-07-09T08:14:34;4.03;;;3.47;;
10335;SDS011;5213;53.548;9.930;2023-07-09T08:17:00;4.05;;;3.75;;
10335;SDS011;5213;53.548;9.930;2023-07-09T08:19:25;5.13;;;4.00;;
10335;SDS011;5213;53.548;9.930;2023-07-09T08:21:51;4.18;;;3.78;;
10335;SDS011;5213;53.548;9.930;2023-07-09T08:24:17;5.78;;;4.10;;
10335;SDS011;5213;53.548;9.930;2023-07-09T08:26:43;6.07;;;4.13;;
10335;SDS011;5213;53.548;9.930;2023-07-09T08:29:08;5.43;;;3.83;;
10335;SDS011;5213;53.548;9.930;2023-07-09T08:31:34;5.47;;;3.63;;
10335;SDS011;5213;53.548;9.930;2023-07-09T08:33:59;4.03;;;3.65;;
10335;SDS011;5213;53.548;9.930;2023-07-09T08:36:27;4.90;;;3.83;;
10335;SDS011;5213;53.548;9.930;2023-07-09T08:38:52;4.40;;;4.00;;
10335;SDS011;5213;53.548;9.930;2023-07-09T08:41:26;4.43;;;4.00;;
10335;SDS011;5213;53.548;9.930;2023-07-09T08:49:37;4.53;;;4.18;;
10335;SDS011;5213;53.548;9.930;2023-07-09T08:52:05;4.00;;;3.63;;
10335;SDS011;5213;53.548;9.930;2023-07-09T08:54:39;4.75;;;4.13;;
10335;SDS011;5213;53.548;9.930;2023-07-09T08:57:17;5.20;;;4.13;;
10335;SDS011;5213;53.548;9.930;2023-07-09T08:59:51;5.18;;;4.70;;
10335;SDS011;5213;53.548;9.930;2023-07-09T09:02:36;4.63;;;3.92;;
10335;SDS011;5213;53.548;9.930;2023-07-09T09:05:09;5.43;;;4.30;;
10335;SDS011;5213;53.548;9.930;2023-07-09T09:07:40;4.53;;;4.13;;
10335;SDS011;5213;53.548;9.930;2023-07-09T09:10:13;5.25;;;4.13;;
10335;SDS011;5213;53.548;9.930;2023-07-09T09:15:38;4.47;;;4.07;;
10335;SDS011;5213;53.548;9.930;2023-07-09T09:18:29;4.93;;;4.40;;
10335;SDS011;5213;53.548;9.930;2023-07-09T09:20:57;6.20;;;3.88;;
10335;SDS011;5213;53.548;9.930;2023-07-09T09:23:31;5.25;;;4.75;;
10335;SDS011;5213;53.548;9.930;2023-07-09T09:26:04;4.60;;;4.20;;
10335;SDS011;5213;53.548;9.930;2023-07-09T09:28:40;5.32;;;4.40;;
10335;SDS011;5213;53.548;9.930;2023-07-09T09:31:08;6.95;;;4.30;;
10335;SDS011;5213;53.548;9.930;2023-07-09T09:33:40;4.75;;;4.03;;
10335;SDS011;5213;53.548;9.930;2023-07-09T09:36:20;4.50;;;4.10;;
10335;SDS011;5213;53.548;9.930;2023-07-09T09:38:55;4.43;;;4.03;;
10335;SDS011;5213;53.548;9.930;2023-07-09T09:41:22;4.40;;;4.03;;
10335;SDS011;5213;53.548;9.930;2023-07-09T09:43:51;5.03;;;4.20;;
10335;SDS011;5213;53.548;9.930;2023-07-09T09:46:20;4.40;;;4.00;;
10335;SDS011;5213;53.548;9.930;2023-07-09T09:48:48;4.57;;;4.28;;
10335;SDS011;5213;53.548;9.930;2023-07-09T09:51:16;6.53;;;4.10;;
10335;SDS011;5213;53.548;9.930;2023-07-09T09:53:55;4.40;;;4.03;;
10335;SDS011;5213;53.548;9.930;2023-07-09T09:56:30;4.30;;;3.97;;
10335;SDS011;5213;53.548;9.930;2023-07-09T09:59:01;3.97;;;3.60;;
10335;SDS011;5213;53.548;9.930;2023-07-09T10:01:38;4.10;;;3.90;;
10335;SDS011;5213;53.548;9.930;2023-07-09T10:04:04;4.75;;;4.43;;
10335;SDS011;5213;53.548;9.930;2023-07-09T10:06:35;4.90;;;4.50;;
10335;SDS011;5213;53.548;9.930;2023-07-09T10:11:53;4.88;;;4.47;;
10335;SDS011;5213;53.548;9.930;2023-07-09T10:14:25;4.65;;;4.13;;
10335;SDS011;5213;53.548;9.930;2023-07-09T10:16:57;4.60;;;4.20;;
10335;SDS011;5213;53.548;9.930;2023-07-09T10:19:35;4.45;;;4.05;;
10335;SDS011;5213;53.548;9.930;2023-07-09T10:22:56;4.70;;;4.30;;
10335;SDS011;5213;53.548;9.930;2023-07-09T10:33:27;4.53;;;3.90;;
10335;SDS011;5213;53.548;9.930;2023-07-09T10:39:13;4.68;;;4.20;;
10335;SDS011;5213;53.548;9.930;2023-07-09T10:41:44;4.80;;;4.40;;
10335;SDS011;5213;53.548;9.930;2023-07-09T10:44:21;4.70;;;4.22;;
10335;SDS011;5213;53.548;9.930;2023-07-09T10:46:55;4.38;;;3.97;;
10335;SDS011;5213;53.548;9.930;2023-07-09T10:49:28;4.60;;;4.20;;
10335;SDS011;5213;53.548;9.930;2023-07-09T10:52:40;4.57;;;3.90;;
10335;SDS011;5213;53.548;9.930;2023-07-09T10:58:04;5.35;;;3.78;;
10335;SDS011;5213;53.548;9.930;2023-07-09T11:00:40;5.07;;;4.25;;
10335;SDS011;5213;53.548;9.930;2023-07-09T11:03:15;4.30;;;3.90;;
10335;SDS011;5213;53.548;9.930;2023-07-09T11:05:53;4.32;;;3.97;;
10335;SDS011;5213;53.548;9.930;2023-07-09T11:08:24;4.32;;;4.03;;
10335;SDS011;5213;53.548;9.930;2023-07-09T11:10:58;4.22;;;3.83;;
10335;SDS011;5213;53.548;9.930;2023-07-09T11:13:50;4.80;;;4.03;;
10335;SDS011;5213;53.548;9.930;2023-07-09T11:16:33;4.60;;;3.55;;
10335;SDS011;5213;53.548;9.930;2023-07-09T11:19:06;4.30;;;3.90;;
10335;SDS011;5213;53.548;9.930;2023-07-09T11:27:22;5.45;;;4.18;;
10335;SDS011;5213;53.548;9.930;2023-07-09T11:29:57;4.50;;;3.80;;
10335;SDS011;5213;53.548;9.930;2023-07-09T11:32:25;4.65;;;4.10;;
10335;SDS011;5213;53.548;9.930;2023-07-09T11:34:52;5.35;;;3.90;;
10335;SDS011;5213;53.548;9.930;2023-07-09T11:37:18;4.72;;;4.20;;
10335;SDS011;5213;53.548;9.930;2023-07-09T11:39:47;5.18;;;3.97;;
10335;SDS011;5213;53.548;9.930;2023-07-09T11:42:24;4.57;;;4.18;;
10335;SDS011;5213;53.548;9.930;2023-07-09T11:44:50;6.32;;;4.50;;
10335;SDS011;5213;53.548;9.930;2023-07-09T11:50:29;7.38;;;4.10;;
10335;SDS011;5213;53.548;9.930;2023-07-09T11:53:15;4.30;;;4.00;;
10335;SDS011;5213;53.548;9.930;2023-07-09T11:55:45;4.53;;;4.15;;
10335;SDS011;5213;53.548;9.930;2023-07-09T11:58:13;4.30;;;3.90;;
10335;SDS011;5213;53.548;9.930;2023-07-09T12:00:54;4.15;;;3.83;;
10335;SDS011;5213;53.548;9.930;2023-07-09T12:03:25;4.13;;;3.83;;
10335;SDS011;5213;53.548;9.930;2023-07-09T12:06:00;3.78;;;3.45;;
10335;SDS011;5213;53.548;9.930;2023-07-09T12:08:42;4.13;;;3.72;;
10335;SDS011;5213;53.548;9.930;2023-07-09T12:13:51;4.32;;;3.90;;
10335;SDS011;5213;53.548;9.930;2023-07-09T12:16:39;4.63;;;4.18;;
10335;SDS011;5213;53.548;9.930;2023-07-09T12:19:05;4.57;;;3.80;;
10335;SDS011;5213;53.548;9.930;2023-07-09T12:21:33;4.85;;;4.30;;
10335;SDS011;5213;53.548;9.930;2023-07-09T12:24:02;4.00;;;3.70;;
10335;SDS011;5213;53.548;9.930;2023-07-09T12:26:38;4.30;;;3.90;;
10335;SDS011;5213;53.548;9.930;2023-07-09T12:29:04;4.25;;;3.80;;
10335;SDS011;5213;53.548;9.930;2023-07-09T12:31:34;4.35;;;4.03;;
10335;SDS011;5213;53.548;9.930;2023-07-09T12:33:59;4.10;;;3.80;;
10335;SDS011;5213;53.548;9.930;2023-07-09T12:36:25;4.07;;;3.80;;
10335;SDS011;5213;53.548;9.930;2023-07-09T12:38:53;5.00;;;3.92;;
10335;SDS011;5213;53.548;9.930;2023-07-09T12:41:23;4.28;;;3.70;;
10335;SDS011;5213;53.548;9.930;2023-07-09T12:43:49;4.43;;;4.00;;
10335;SDS011;5213;53.548;9.930;2023-07-09T12:46:17;4.47;;;4.13;;
10335;SDS011;5213;53.548;9.930;2023-07-09T12:48:43;4.22;;;3.83;;
10335;SDS011;5213;53.548;9.930;2023-07-09T12:51:13;4.10;;;3.75;;
10335;SDS011;5213;53.548;9.930;2023-07-09T12:53:43;5.50;;;3.88;;
10335;SDS011;5213;53.548;9.930;2023-07-09T12:56:11;4.40;;;4.00;;
10335;SDS011;5213;53.548;9.930;2023-07-09T12:58:40;3.92;;;3.60;;
10335;SDS011;5213;53.548;9.930;2023-07-09T13:01:14;4.35;;;4.05;;
10335;SDS011;5213;53.548;9.930;2023-07-09T13:03:41;4.13;;;3.60;;
10335;SDS011;5213;53.548;9.930;2023-07-09T13:06:25;6.53;;;4.05;;
10335;SDS011;5213;53.548;9.930;2023-07-09T13:08:59;6.72;;;4.15;;
10335;SDS011;5213;53.548;9.930;2023-07-09T13:11:26;4.22;;;3.88;;
10335;SDS011;5213;53.548;9.930;2023-07-09T13:13:59;4.45;;;4.05;;
10335;SDS011;5213;53.548;9.930;2023-07-09T13:16:27;4.22;;;3.90;;
10335;SDS011;5213;53.548;9.930;2023-07-09T13:18:53;7.75;;;4.13;;
10335;SDS011;5213;53.548;9.930;2023-07-09T13:21:20;4.32;;;4.03;;
10335;SDS011;5213;53.548;9.930;2023-07-09T13:23:46;4.90;;;4.50;;
10335;SDS011;5213;53.548;9.930;2023-07-09T13:26:12;4.35;;;3.95;;
10335;SDS011;5213;53.548;9.930;2023-07-09T13:28:39;4.28;;;3.97;;
10335;SDS011;5213;53.548;9.930;2023-07-09T13:31:10;4.60;;;4.20;;
10335;SDS011;5213;53.548;9.930;2023-07-09T13:33:45;4.00;;;3.70;;
10335;SDS011;5213;53.548;9.930;2023-07-09T13:36:17;4.43;;;3.90;;
10335;SDS011;5213;53.548;9.930;2023-07-09T13:38:43;4.15;;;3.80;;
10335;SDS011;5213;53.548;9.930;2023-07-09T13:41:14;4.38;;;3.97;;
10335;SDS011;5213;53.548;9.930;2023-07-09T13:43:43;4.50;;;4.10;;
10335;SDS011;5213;53.548;9.930;2023-07-09T13:46:10;4.22;;;3.83;;
10335;SDS011;5213;53.548;9.930;2023-07-09T13:48:36;5.68;;;4.38;;
10335;SDS011;5213;53.548;9.930;2023-07-09T13:51:12;4.40;;;4.00;;
10335;SDS011;5213;53.548;9.930;2023-07-09T13:53:40;5.10;;;4.07;;
10335;SDS011;5213;53.548;9.930;2023-07-09T13:56:05;4.70;;;4.22;;
10335;SDS011;5213;53.548;9.930;2023-07-09T13:58:31;3.95;;;3.65;;
10335;SDS011;5213;53.548;9.930;2023-07-09T14:01:12;4.18;;;3.90;;
10335;SDS011;5213;53.548;9.930;2023-07-09T14:03:40;5.43;;;4.03;;
10335;SDS011;5213;53.548;9.930;2023-07-09T14:06:13;4.30;;;3.90;;
10335;SDS011;5213;53.548;9.930;2023-07-09T14:08:41;4.20;;;3.90;;
10335;SDS011;5213;53.548;9.930;2023-07-09T14:11:09;4.10;;;3.70;;
10335;SDS011;5213;53.548;9.930;2023-07-09T14:13:39;4.30;;;3.90;;
10335;SDS011;5213;53.548;9.930;2023-07-09T14:16:05;4.05;;;3.65;;
10335;SDS011;5213;53.548;9.930;2023-07-09T14:18:33;4.50;;;4.10;;
10335;SDS011;5213;53.548;9.930;2023-07-09T14:20:59;4.15;;;3.85;;
10335;SDS011;5213;53.548;9.930;2023-07-09T14:23:26;4.93;;;4.10;;
10335;SDS011;5213;53.548;9.930;2023-07-09T14:25:52;4.20;;;3.80;;
10335;SDS011;5213;53.548;9.930;2023-07-09T14:28:18;5.07;;;4.20;;
10335;SDS011;5213;53.548;9.930;2023-07-09T14:30:45;4.47;;;4.05;;
10335;SDS011;5213;53.548;9.930;2023-07-09T14:33:15;4.80;;;4.35;;
10335;SDS011;5213;53.548;9.930;2023-07-09T14:35:42;4.55;;;4.15;;
10335;SDS011;5213;53.548;9.930;2023-07-09T14:38:19;4.53;;;4.13;;
10335;SDS011;5213;53.548;9.930;2023-07-09T14:40:47;4.50;;;4.15;;
10335;SDS011;5213;53.548;9.930;2023-07-09T14:43:15;4.30;;;3.95;;
10335;SDS011;5213;53.548;9.930;2023-07-09T14:45:40;4.80;;;4.40;;
10335;SDS011;5213;53.548;9.930;2023-07-09T14:48:11;6.57;;;4.60;;
10335;SDS011;5213;53.548;9.930;2023-07-09T14:50:37;5.03;;;4.28;;
10335;SDS011;5213;53.548;9.930;2023-07-09T14:53:03;6.35;;;5.75;;
10335;SDS011;5213;53.548;9.930;2023-07-09T14:55:37;5.32;;;4.82;;
10335;SDS011;5213;53.548;9.930;2023-07-09T14:58:04;5.68;;;4.90;;
10335;SDS011;5213;53.548;9.930;2023-07-09T15:00:40;5.10;;;4.70;;
10335;SDS011;5213;53.548;9.930;2023-07-09T15:03:07;5.05;;;4.65;;
10335;SDS011;5213;53.548;9.930;2023-07-09T15:05:34;6.28;;;4.13;;
10335;SDS011;5213;53.548;9.930;2023-07-09T15:08:00;4.10;;;3.80;;
10335;SDS011;5213;53.548;9.930;2023-07-09T15:10:27;4.60;;;4.20;;
10335;SDS011;5213;53.548;9.930;2023-07-09T15:12:52;4.80;;;3.95;;
10335;SDS011;5213;53.548;9.930;2023-07-09T15:17:55;4.35;;;4.05;;
10335;SDS011;5213;53.548;9.930;2023-07-09T15:20:24;4.38;;;4.07;;
10335;SDS011;5213;53.548;9.930;2023-07-09T15:22:55;4.38;;;3.90;;
10335;SDS011;5213;53.548;9.930;2023-07-09T15:25:24;4.43;;;4.03;;
10335;SDS011;5213;53.548;9.930;2023-07-09T15:27:51;4.30;;;4.00;;
10335;SDS011;5213;53.548;9.930;2023-07-09T15:30:18;5.85;;;4.45;;
10335;SDS011;5213;53.548;9.930;2023-07-09T15:32:48;7.85;;;5.00;;
10335;SDS011;5213;53.548;9.930;2023-07-09T15:35:15;4.60;;;4.05;;
10335;SDS011;5213;53.548;9.930;2023-07-09T15:37:42;5.10;;;4.45;;
10335;SDS011;5213;53.548;9.930;2023-07-09T15:40:19;5.05;;;3.97;;
10335;SDS011;5213;53.548;9.930;2023-07-09T15:42:48;5.80;;;4.40;;
10335;SDS011;5213;53.548;9.930;2023-07-09T15:45:17;8.55;;;4.13;;
10335;SDS011;5213;53.548;9.930;2023-07-09T15:47:44;4.80;;;4.22;;
10335;SDS011;5213;53.548;9.930;2023-07-09T15:52:39;4.53;;;4.13;;
10335;SDS011;5213;53.548;9.930;2023-07-09T15:55:05;5.38;;;4.40;;
10335;SDS011;5213;53.548;9.930;2023-07-09T15:57:32;4.47;;;4.07;;
10335;SDS011;5213;53.548;9.930;2023-07-09T16:00:15;5.32;;;4.22;;
10335;SDS011;5213;53.548;9.930;2023-07-09T16:02:53;5.40;;;4.18;;